»·PEaware :: KENT10 KSPS-KSPS

KENT10 :: KSPS-KSPS

FLIGHT INFORMATION

Flight Status: Arrived
Operator: Unknown
More flights by this operator :: More flights under this callsign
Pilot: 80 FTW ENJJPT (22981)
Aircraft: Unknown
(T-38)
More flights by this aircraft type
Origin: KSPS Sheppard AFB/Wichita Falls Mu
United States
Destination: KSPS Sheppard AFB/Wichita Falls Mu
United States
More flights between these airports :: More routes between these airports
Route: +FALLS MIKKES SHP
File this flight plan on PilotEdge
Remarks: CH 6 - 4710
Altitude:
(Current/Filed)
16,000ft
Speed:
(Current/Filed)
0kts
Departed: 03-Aug-20 10:37 AM
Arrived: 03-Aug-20 11:32 AM
Distance/Time
Traveled:
0nm/0:54
Distance/Time
To Go:
Arrived

Flight Plot

Page will automatically refresh every two minutes.

Flight plan parsing failed; only flown route is shown


Map Options




Map Legend


Flown Route
Filed Route
Departure Airport
Arrival Airport
Navaid (VOR, NDB)
Fix

Horizontal Profiles

Position Reports

Time Latitude Longitude Heading Altitude Ground
Speed
03-Aug-20 10:00 34.003322 -98.500552 70 1027ft 0kts
03-Aug-20 10:01 34.003322 -98.500552 70 1027ft 0kts
03-Aug-20 10:02 34.003322 -98.500552 70 1027ft 0kts
03-Aug-20 10:03 34.003322 -98.500552 70 1027ft 0kts
03-Aug-20 10:04 34.003322 -98.500552 70 1027ft 0kts
03-Aug-20 10:05 34.003322 -98.500552 70 1027ft 0kts
03-Aug-20 10:06 34.003322 -98.500552 70 1027ft 0kts
03-Aug-20 10:07 34.003322 -98.500552 70 1027ft 0kts
03-Aug-20 10:08 34.003322 -98.500552 70 1027ft 0kts
03-Aug-20 10:09 34.003322 -98.500552 70 1027ft 0kts
03-Aug-20 10:10 34.003322 -98.500552 70 1027ft 0kts
03-Aug-20 10:11 34.003322 -98.500552 70 1027ft 0kts
03-Aug-20 10:12 34.003322 -98.500552 70 1027ft 0kts
03-Aug-20 10:13 34.003322 -98.500552 70 1027ft 0kts
03-Aug-20 10:14 34.003322 -98.500552 70 1027ft 0kts
03-Aug-20 10:15 34.003322 -98.500552 70 1027ft 0kts
03-Aug-20 10:16 34.003322 -98.500552 70 1027ft 0kts
03-Aug-20 10:17 34.003322 -98.500552 70 1027ft 0kts
03-Aug-20 10:18 34.003322 -98.500552 70 1027ft 0kts
03-Aug-20 10:19 34.003322 -98.500552 70 1027ft 0kts
03-Aug-20 10:20 34.003322 -98.500552 70 1027ft 0kts
03-Aug-20 10:21 34.003322 -98.500552 70 1027ft 0kts
03-Aug-20 10:22 34.003322 -98.500552 70 1027ft 0kts
03-Aug-20 10:23 34.003322 -98.500552 70 1027ft 0kts
03-Aug-20 10:24 34.003322 -98.500552 70 1027ft 0kts
03-Aug-20 10:25 34.003322 -98.500552 70 1027ft 0kts
03-Aug-20 10:26 34.003322 -98.500552 70 1027ft 0kts
03-Aug-20 10:27 34.003322 -98.500552 70 1027ft 0kts
03-Aug-20 10:28 34.003322 -98.500552 70 1027ft 0kts
03-Aug-20 10:29 34.003322 -98.500552 70 1027ft 0kts
03-Aug-20 10:30 34.003323 -98.500551 70 1027ft 0kts
03-Aug-20 10:31 34.003323 -98.500550 70 1027ft 0kts
03-Aug-20 10:32 34.003324 -98.500548 70 1027ft 0kts
03-Aug-20 10:33 34.003324 -98.500546 70 1027ft 0kts
03-Aug-20 10:34 34.003325 -98.500545 70 1027ft 0kts
03-Aug-20 10:35 34.003391 -98.499310 158 1027ft 0kts
03-Aug-20 10:36 33.974669 -98.485630 158 1724ft 311kts
03-Aug-20 10:37 33.878712 -98.447962 183 4825ft 375kts
03-Aug-20 10:38 33.830740 -98.528073 293 4894ft 315kts
03-Aug-20 10:39 33.885187 -98.610189 313 4868ft 319kts
03-Aug-20 10:40 33.960085 -98.664295 338 4894ft 318kts
03-Aug-20 10:41 34.043762 -98.701942 342 4827ft 322kts
03-Aug-20 10:42 34.131195 -98.704187 37 2800ft 329kts
03-Aug-20 10:43 34.166573 -98.613842 104 2288ft 284kts
03-Aug-20 10:44 34.122351 -98.551272 159 2238ft 239kts
03-Aug-20 10:46 34.063194 -98.524065 158 2172ft 209kts
03-Aug-20 10:47 34.010938 -98.499347 157 1164ft 196kts
03-Aug-20 10:48 33.942728 -98.466277 159 3878ft 303kts
03-Aug-20 10:49 33.874198 -98.508878 262 8460ft 341kts
03-Aug-20 10:50 33.866106 -98.634111 268 11664ft 411kts
03-Aug-20 10:51 33.857959 -98.768957 260 16221ft 412kts
03-Aug-20 10:52 33.833521 -98.912661 257 19715ft 449kts
03-Aug-20 10:53 33.826236 -99.064577 292 22033ft 492kts
03-Aug-20 10:54 33.899037 -99.205998 329 20040ft 527kts
03-Aug-20 10:55 33.922372 -99.173485 189 17548ft 540kts
03-Aug-20 10:56 33.886407 -99.182694 290 13409ft 550kts
03-Aug-20 10:57 33.884397 -99.314694 75 20784ft 217kts
03-Aug-20 10:58 33.895574 -99.245143 248 20680ft 217kts
03-Aug-20 10:59 33.831242 -99.291078 105 16201ft 379kts
03-Aug-20 11:00 33.894933 -99.200501 347 14616ft 494kts
03-Aug-20 11:01 33.988359 -99.277426 250 13874ft 392kts
03-Aug-20 11:01 33.931231 -99.271183 86 12691ft 331kts
03-Aug-20 11:03 33.942859 -99.139056 81 12502ft 346kts
03-Aug-20 11:03 33.971126 -99.047791 67 12146ft 353kts
03-Aug-20 11:04 34.010100 -98.936727 67 9463ft 365kts
03-Aug-20 11:06 34.052910 -98.807318 68 6164ft 348kts
03-Aug-20 11:06 34.082516 -98.721265 66 3666ft 319kts
03-Aug-20 11:07 34.127414 -98.633011 56 2786ft 326kts
03-Aug-20 11:08 34.119771 -98.556373 152 2587ft 293kts
03-Aug-20 11:09 34.108954 -98.549920 154 2277ft 293kts
03-Aug-20 11:10 34.047692 -98.520729 158 2047ft 183kts
03-Aug-20 11:11 34.001868 -98.498508 158 1031ft 164kts
03-Aug-20 11:12 33.954300 -98.494585 312 2656ft 249kts
03-Aug-20 11:13 34.011330 -98.530452 350 2730ft 199kts
03-Aug-20 11:14 33.997067 -98.496218 158 1044ft 180kts
03-Aug-20 11:15 33.960247 -98.506796 326 2787ft 260kts
03-Aug-20 11:16 34.022176 -98.534376 355 2486ft 226kts
03-Aug-20 11:17 34.002616 -98.498880 158 1044ft 219kts
03-Aug-20 11:18 33.969546 -98.513576 339 2763ft 228kts
03-Aug-20 11:19 34.027332 -98.542543 26 2474ft 219kts
03-Aug-20 11:20 34.000739 -98.497938 158 1086ft 221kts
03-Aug-20 11:21 33.961743 -98.510272 346 2839ft 293kts
03-Aug-20 11:22 34.021223 -98.538193 322 3008ft 220kts
03-Aug-20 11:23 34.005292 -98.635478 249 4131ft 338kts
03-Aug-20 11:24 33.955220 -98.712957 161 3899ft 316kts
03-Aug-20 11:25 33.937667 -98.626895 45 3503ft 305kts
03-Aug-20 11:26 34.014257 -98.595731 343 2681ft 297kts
03-Aug-20 11:27 34.061440 -98.555197 121 2711ft 303kts
03-Aug-20 11:28 33.994282 -98.495473 170 2838ft 315kts
03-Aug-20 11:29 34.015949 -98.535133 354 2734ft 194kts
03-Aug-20 11:30 34.003241 -98.499339 158 1033ft 161kts
03-Aug-20 11:31 33.982878 -98.489637 159 1027ft 0kts
03-Aug-20 11:32 33.982876 -98.489636 159 1027ft 0kts
03-Aug-20 11:33 33.982876 -98.489636 159 1027ft 0kts
03-Aug-20 11:34 33.982876 -98.489636 159 1027ft 0kts
03-Aug-20 11:35 33.982876 -98.489636 159 1027ft 0kts
03-Aug-20 11:36 33.982876 -98.489636 159 1027ft 0kts
03-Aug-20 11:37 33.982876 -98.489636 159 1027ft 0kts

Navigation Log

Ident Type
Flight plan parsing failed, navigation log unavailable